sensor_id;sensor_type;location;lat;lon;timestamp;temperature;humidity
75372;HTU21D;63956;52.006;5.878;2023-01-10T00:02:17;7.54;74.90
75372;HTU21D;63956;52.006;5.878;2023-01-10T00:04:46;7.55;74.82
75372;HTU21D;63956;52.006;5.878;2023-01-10T00:07:15;7.56;74.84
75372;HTU21D;63956;52.006;5.878;2023-01-10T00:09:44;7.54;74.74
75372;HTU21D;63956;52.006;5.878;2023-01-10T00:12:13;7.58;74.29
75372;HTU21D;63956;52.006;5.878;2023-01-10T00:14:54;7.63;74.43
75372;HTU21D;63956;52.006;5.878;2023-01-10T00:17:26;7.72;74.23
75372;HTU21D;63956;52.006;5.878;2023-01-10T00:19:55;7.79;73.69
75372;HTU21D;63956;52.006;5.878;2023-01-10T00:22:24;7.85;73.60
75372;HTU21D;63956;52.006;5.878;2023-01-10T00:24:53;7.86;73.63
75372;HTU21D;63956;52.006;5.878;2023-01-10T00:27:23;7.88;73.57
75372;HTU21D;63956;52.006;5.878;2023-01-10T00:29:52;7.87;73.64
75372;HTU21D;63956;52.006;5.878;2023-01-10T00:32:25;7.84;73.56
75372;HTU21D;63956;52.006;5.878;2023-01-10T00:34:55;7.75;73.41
75372;HTU21D;63956;52.006;5.878;2023-01-10T00:37:24;7.69;73.98
75372;HTU21D;63956;52.006;5.878;2023-01-10T00:39:53;7.69;73.87
75372;HTU21D;63956;52.006;5.878;2023-01-10T00:42:22;7.62;73.89
75372;HTU21D;63956;52.006;5.878;2023-01-10T00:45:04;7.54;74.09
75372;HTU21D;63956;52.006;5.878;2023-01-10T00:47:36;7.50;73.87
75372;HTU21D;63956;52.006;5.878;2023-01-10T00:50:06;7.49;74.12
75372;HTU21D;63956;52.006;5.878;2023-01-10T00:52:36;7.52;73.93
75372;HTU21D;63956;52.006;5.878;2023-01-10T00:55:06;7.54;74.01
75372;HTU21D;63956;52.006;5.878;2023-01-10T00:57:36;7.54;73.50
75372;HTU21D;63956;52.006;5.878;2023-01-10T01:00:07;7.50;73.67
75372;HTU21D;63956;52.006;5.878;2023-01-10T01:02:39;7.48;73.49
75372;HTU21D;63956;52.006;5.878;2023-01-10T01:05:09;7.44;73.88
75372;HTU21D;63956;52.006;5.878;2023-01-10T01:07:38;7.44;73.72
75372;HTU21D;63956;52.006;5.878;2023-01-10T01:10:08;7.43;73.72
75372;HTU21D;63956;52.006;5.878;2023-01-10T01:12:50;7.47;73.73
75372;HTU21D;63956;52.006;5.878;2023-01-10T01:15:19;7.49;73.50
75372;HTU21D;63956;52.006;5.878;2023-01-10T01:17:52;7.49;73.55
75372;HTU21D;63956;52.006;5.878;2023-01-10T01:20:21;7.43;73.50
75372;HTU21D;63956;52.006;5.878;2023-01-10T01:22:51;7.40;73.52
75372;HTU21D;63956;52.006;5.878;2023-01-10T01:25:20;7.42;73.63
75372;HTU21D;63956;52.006;5.878;2023-01-10T01:27:49;7.47;73.25
75372;HTU21D;63956;52.006;5.878;2023-01-10T01:30:18;7.48;73.12
75372;HTU21D;63956;52.006;5.878;2023-01-10T01:32:47;7.52;73.27
75372;HTU21D;63956;52.006;5.878;2023-01-10T01:35:19;7.55;73.04
75372;HTU21D;63956;52.006;5.878;2023-01-10T01:37:50;7.56;73.15
75372;HTU21D;63956;52.006;5.878;2023-01-10T01:40:20;7.61;73.12
75372;HTU21D;63956;52.006;5.878;2023-01-10T01:42:50;7.64;72.88
75372;HTU21D;63956;52.006;5.878;2023-01-10T01:45:38;7.69;72.93
75372;HTU21D;63956;52.006;5.878;2023-01-10T01:48:30;7.67;73.03
75372;HTU21D;63956;52.006;5.878;2023-01-10T01:51:07;7.63;73.12
75372;HTU21D;63956;52.006;5.878;2023-01-10T01:53:42;7.58;73.24
75372;HTU21D;63956;52.006;5.878;2023-01-10T01:56:15;7.53;73.11
75372;HTU21D;63956;52.006;5.878;2023-01-10T01:58:48;7.45;73.47
75372;HTU21D;63956;52.006;5.878;2023-01-10T02:01:18;7.40;73.69
75372;HTU21D;63956;52.006;5.878;2023-01-10T02:03:53;7.33;73.83
75372;HTU21D;63956;52.006;5.878;2023-01-10T02:06:25;7.28;73.82
75372;HTU21D;63956;52.006;5.878;2023-01-10T02:09:01;7.24;73.87
75372;HTU21D;63956;52.006;5.878;2023-01-10T02:11:31;7.23;73.99
75372;HTU21D;63956;52.006;5.878;2023-01-10T02:14:00;7.19;74.04
75372;HTU21D;63956;52.006;5.878;2023-01-10T02:16:31;7.17;73.96
75372;HTU21D;63956;52.006;5.878;2023-01-10T02:19:01;7.15;74.09
75372;HTU21D;63956;52.006;5.878;2023-01-10T02:21:43;7.15;74.03
75372;HTU21D;63956;52.006;5.878;2023-01-10T02:27:25;7.23;74.07
75372;HTU21D;63956;52.006;5.878;2023-01-10T02:30:25;7.32;73.75
75372;HTU21D;63956;52.006;5.878;2023-01-10T02:33:07;7.42;73.57
75372;HTU21D;63956;52.006;5.878;2023-01-10T02:35:52;7.49;73.33
75372;HTU21D;63956;52.006;5.878;2023-01-10T02:38:34;7.57;73.30
75372;HTU21D;63956;52.006;5.878;2023-01-10T02:41:10;7.62;73.28
75372;HTU21D;63956;52.006;5.878;2023-01-10T02:43:46;7.70;73.27
75372;HTU21D;63956;52.006;5.878;2023-01-10T02:46:21;7.74;73.06
75372;HTU21D;63956;52.006;5.878;2023-01-10T02:48:55;7.78;73.22
75372;HTU21D;63956;52.006;5.878;2023-01-10T02:51:26;7.81;73.29
75372;HTU21D;63956;52.006;5.878;2023-01-10T02:53:59;7.82;73.37
75372;HTU21D;63956;52.006;5.878;2023-01-10T02:57:07;7.86;73.33
75372;HTU21D;63956;52.006;5.878;2023-01-10T03:02:56;7.90;73.35
75372;HTU21D;63956;52.006;5.878;2023-01-10T03:05:45;7.86;73.44
75372;HTU21D;63956;52.006;5.878;2023-01-10T03:08:25;7.81;73.66
75372;HTU21D;63956;52.006;5.878;2023-01-10T03:10:57;7.76;73.80
75372;HTU21D;63956;52.006;5.878;2023-01-10T03:13:32;7.75;73.94
75372;HTU21D;63956;52.006;5.878;2023-01-10T03:16:06;7.77;73.86
75372;HTU21D;63956;52.006;5.878;2023-01-10T03:18:41;7.79;73.83
75372;HTU21D;63956;52.006;5.878;2023-01-10T03:21:16;7.81;73.83
75372;HTU21D;63956;52.006;5.878;2023-01-10T03:23:48;7.84;73.70
75372;HTU21D;63956;52.006;5.878;2023-01-10T03:26:22;7.86;73.60
75372;HTU21D;63956;52.006;5.878;2023-01-10T03:28:58;7.86;73.66
75372;HTU21D;63956;52.006;5.878;2023-01-10T03:31:33;7.89;73.61
75372;HTU21D;63956;52.006;5.878;2023-01-10T03:34:04;7.89;73.61
75372;HTU21D;63956;52.006;5.878;2023-01-10T03:36:40;7.93;73.53
75372;HTU21D;63956;52.006;5.878;2023-01-10T03:39:17;7.92;73.42
75372;HTU21D;63956;52.006;5.878;2023-01-10T03:41:53;7.90;73.54
75372;HTU21D;63956;52.006;5.878;2023-01-10T03:44:30;7.90;73.63
75372;HTU21D;63956;52.006;5.878;2023-01-10T03:47:14;7.90;73.67
75372;HTU21D;63956;52.006;5.878;2023-01-10T03:49:48;7.90;73.62
75372;HTU21D;63956;52.006;5.878;2023-01-10T03:52:20;7.90;73.70
75372;HTU21D;63956;52.006;5.878;2023-01-10T03:54:50;7.85;73.66
75372;HTU21D;63956;52.006;5.878;2023-01-10T03:57:21;7.82;73.81
75372;HTU21D;63956;52.006;5.878;2023-01-10T03:59:53;7.83;73.84
75372;HTU21D;63956;52.006;5.878;2023-01-10T04:02:24;7.86;73.71
75372;HTU21D;63956;52.006;5.878;2023-01-10T04:04:54;7.88;73.76
75372;HTU21D;63956;52.006;5.878;2023-01-10T04:07:26;7.90;73.77
75372;HTU21D;63956;52.006;5.878;2023-01-10T04:09:55;7.92;73.57
75372;HTU21D;63956;52.006;5.878;2023-01-10T04:12:25;7.93;73.61
75372;HTU21D;63956;52.006;5.878;2023-01-10T04:14:54;7.93;73.44
75372;HTU21D;63956;52.006;5.878;2023-01-10T04:17:23;7.90;73.75
75372;HTU21D;63956;52.006;5.878;2023-01-10T04:19:52;7.82;73.91
75372;HTU21D;63956;52.006;5.878;2023-01-10T04:22:21;7.78;73.98
75372;HTU21D;63956;52.006;5.878;2023-01-10T04:24:53;7.81;73.90
75372;HTU21D;63956;52.006;5.878;2023-01-10T04:27:22;7.78;73.99
75372;HTU21D;63956;52.006;5.878;2023-01-10T04:29:51;7.79;73.94
75372;HTU21D;63956;52.006;5.878;2023-01-10T04:32:20;7.79;73.98
75372;HTU21D;63956;52.006;5.878;2023-01-10T04:34:49;7.77;74.00
75372;HTU21D;63956;52.006;5.878;2023-01-10T04:37:18;7.82;73.87
75372;HTU21D;63956;52.006;5.878;2023-01-10T04:39:47;7.78;73.80
75372;HTU21D;63956;52.006;5.878;2023-01-10T04:42:19;7.78;73.82
75372;HTU21D;63956;52.006;5.878;2023-01-10T04:44:48;7.69;74.06
75372;HTU21D;63956;52.006;5.878;2023-01-10T04:47:17;7.68;74.18
75372;HTU21D;63956;52.006;5.878;2023-01-10T04:49:46;7.70;74.26
75372;HTU21D;63956;52.006;5.878;2023-01-10T04:52:15;7.78;73.88
75372;HTU21D;63956;52.006;5.878;2023-01-10T04:54:44;7.77;73.90
75372;HTU21D;63956;52.006;5.878;2023-01-10T04:57:13;7.79;73.91
75372;HTU21D;63956;52.006;5.878;2023-01-10T04:59:45;7.84;73.70
75372;HTU21D;63956;52.006;5.878;2023-01-10T05:02:15;7.84;73.81
75372;HTU21D;63956;52.006;5.878;2023-01-10T05:04:44;7.79;73.80
75372;HTU21D;63956;52.006;5.878;2023-01-10T05:07:13;7.81;73.88
75372;HTU21D;63956;52.006;5.878;2023-01-10T05:09:42;7.86;73.73
75372;HTU21D;63956;52.006;5.878;2023-01-10T05:12:11;7.83;73.70
75372;HTU21D;63956;52.006;5.878;2023-01-10T05:14:40;7.85;73.75
75372;HTU21D;63956;52.006;5.878;2023-01-10T05:17:12;7.87;73.77
75372;HTU21D;63956;52.006;5.878;2023-01-10T05:19:41;7.92;73.65
75372;HTU21D;63956;52.006;5.878;2023-01-10T05:22:11;7.92;73.63
75372;HTU21D;63956;52.006;5.878;2023-01-10T05:24:40;7.91;73.69
75372;HTU21D;63956;52.006;5.878;2023-01-10T05:27:09;7.92;73.73
75372;HTU21D;63956;52.006;5.878;2023-01-10T05:29:38;7.96;73.66
75372;HTU21D;63956;52.006;5.878;2023-01-10T05:32:08;7.98;73.52
75372;HTU21D;63956;52.006;5.878;2023-01-10T05:34:39;7.97;73.56
75372;HTU21D;63956;52.006;5.878;2023-01-10T05:37:09;7.94;73.51
75372;HTU21D;63956;52.006;5.878;2023-01-10T05:39:38;7.98;73.54
75372;HTU21D;63956;52.006;5.878;2023-01-10T05:42:08;7.99;73.56
75372;HTU21D;63956;52.006;5.878;2023-01-10T05:44:37;7.97;73.53
75372;HTU21D;63956;52.006;5.878;2023-01-10T05:47:06;7.97;73.58
75372;HTU21D;63956;52.006;5.878;2023-01-10T05:49:36;7.93;73.66
75372;HTU21D;63956;52.006;5.878;2023-01-10T05:52:07;7.94;73.65
75372;HTU21D;63956;52.006;5.878;2023-01-10T05:54:36;7.91;73.61
75372;HTU21D;63956;52.006;5.878;2023-01-10T05:57:06;7.87;73.61
75372;HTU21D;63956;52.006;5.878;2023-01-10T05:59:35;7.84;73.80
75372;HTU21D;63956;52.006;5.878;2023-01-10T06:02:04;7.87;73.75
75372;HTU21D;63956;52.006;5.878;2023-01-10T06:04:33;7.87;73.69
75372;HTU21D;63956;52.006;5.878;2023-01-10T06:07:02;7.97;73.45
75372;HTU21D;63956;52.006;5.878;2023-01-10T06:09:33;7.94;73.37
75372;HTU21D;63956;52.006;5.878;2023-01-10T06:12:03;7.96;73.25
75372;HTU21D;63956;52.006;5.878;2023-01-10T06:14:32;7.98;73.32
75372;HTU21D;63956;52.006;5.878;2023-01-10T06:17:01;8.03;73.15
75372;HTU21D;63956;52.006;5.878;2023-01-10T06:19:33;7.99;73.24
75372;HTU21D;63956;52.006;5.878;2023-01-10T06:22:03;8.00;73.20
75372;HTU21D;63956;52.006;5.878;2023-01-10T06:24:35;8.01;73.20
75372;HTU21D;63956;52.006;5.878;2023-01-10T06:27:04;7.96;73.15
75372;HTU21D;63956;52.006;5.878;2023-01-10T06:29:33;7.97;73.16
75372;HTU21D;63956;52.006;5.878;2023-01-10T06:32:02;8.00;73.15
75372;HTU21D;63956;52.006;5.878;2023-01-10T06:34:31;7.97;72.98
75372;HTU21D;63956;52.006;5.878;2023-01-10T06:37:00;8.02;72.97
75372;HTU21D;63956;52.006;5.878;2023-01-10T06:39:29;7.97;72.99
75372;HTU21D;63956;52.006;5.878;2023-01-10T06:42:01;8.01;72.91
75372;HTU21D;63956;52.006;5.878;2023-01-10T06:44:30;7.96;72.77
75372;HTU21D;63956;52.006;5.878;2023-01-10T06:46:59;7.93;72.87
75372;HTU21D;63956;52.006;5.878;2023-01-10T06:49:28;7.94;73.03
75372;HTU21D;63956;52.006;5.878;2023-01-10T06:51:57;8.03;72.85
75372;HTU21D;63956;52.006;5.878;2023-01-10T06:54:26;7.99;72.69
75372;HTU21D;63956;52.006;5.878;2023-01-10T06:56:55;8.03;72.75
75372;HTU21D;63956;52.006;5.878;2023-01-10T06:59:26;7.97;72.70
75372;HTU21D;63956;52.006;5.878;2023-01-10T07:01:55;7.97;72.86
75372;HTU21D;63956;52.006;5.878;2023-01-10T07:04:25;7.96;72.67
75372;HTU21D;63956;52.006;5.878;2023-01-10T07:06:54;7.96;72.70
75372;HTU21D;63956;52.006;5.878;2023-01-10T07:09:23;7.99;72.76
75372;HTU21D;63956;52.006;5.878;2023-01-10T07:11:52;8.01;72.64
75372;HTU21D;63956;52.006;5.878;2023-01-10T07:14:22;8.02;72.64
75372;HTU21D;63956;52.006;5.878;2023-01-10T07:16:53;8.01;72.78
75372;HTU21D;63956;52.006;5.878;2023-01-10T07:19:22;8.02;72.77
75372;HTU21D;63956;52.006;5.878;2023-01-10T07:21:51;8.04;72.64
75372;HTU21D;63956;52.006;5.878;2023-01-10T07:24:21;8.05;72.47
75372;HTU21D;63956;52.006;5.878;2023-01-10T07:26:49;8.08;72.56
75372;HTU21D;63956;52.006;5.878;2023-01-10T07:29:18;8.04;72.49
75372;HTU21D;63956;52.006;5.878;2023-01-10T07:31:48;8.05;72.48
75372;HTU21D;63956;52.006;5.878;2023-01-10T07:34:19;8.07;72.45
75372;HTU21D;63956;52.006;5.878;2023-01-10T07:36:49;8.05;72.50
75372;HTU21D;63956;52.006;5.878;2023-01-10T07:39:18;8.04;72.54
75372;HTU21D;63956;52.006;5.878;2023-01-10T07:41:47;8.11;72.51
75372;HTU21D;63956;52.006;5.878;2023-01-10T07:44:20;8.04;72.31
75372;HTU21D;63956;52.006;5.878;2023-01-10T07:46:49;8.07;72.44
75372;HTU21D;63956;52.006;5.878;2023-01-10T07:49:21;7.99;72.41
75372;HTU21D;63956;52.006;5.878;2023-01-10T07:51:50;7.96;72.63
75372;HTU21D;63956;52.006;5.878;2023-01-10T07:54:19;7.94;72.56
75372;HTU21D;63956;52.006;5.878;2023-01-10T07:56:49;7.96;72.71
75372;HTU21D;63956;52.006;5.878;2023-01-10T07:59:18;7.97;72.60
75372;HTU21D;63956;52.006;5.878;2023-01-10T08:01:47;8.02;72.40
75372;HTU21D;63956;52.006;5.878;2023-01-10T08:04:16;8.03;72.25
75372;HTU21D;63956;52.006;5.878;2023-01-10T08:06:47;8.09;72.30
75372;HTU21D;63956;52.006;5.878;2023-01-10T08:09:16;8.08;72.25
75372;HTU21D;63956;52.006;5.878;2023-01-10T08:11:45;8.13;72.10
75372;HTU21D;63956;52.006;5.878;2023-01-10T08:14:16;8.08;71.79
75372;HTU21D;63956;52.006;5.878;2023-01-10T08:16:45;8.06;71.74
75372;HTU21D;63956;52.006;5.878;2023-01-10T08:19:15;8.04;71.79
75372;HTU21D;63956;52.006;5.878;2023-01-10T08:21:44;8.04;71.90
75372;HTU21D;63956;52.006;5.878;2023-01-10T08:24:16;8.09;71.90
75372;HTU21D;63956;52.006;5.878;2023-01-10T08:26:45;8.05;71.69
75372;HTU21D;63956;52.006;5.878;2023-01-10T08:29:13;8.12;71.71
75372;HTU21D;63956;52.006;5.878;2023-01-10T08:31:43;8.06;71.61
75372;HTU21D;63956;52.006;5.878;2023-01-10T08:34:12;8.12;71.66
75372;HTU21D;63956;52.006;5.878;2023-01-10T08:36:41;8.11;71.50
75372;HTU21D;63956;52.006;5.878;2023-01-10T08:39:11;8.13;71.32
75372;HTU21D;63956;52.006;5.878;2023-01-10T08:41:43;8.13;71.54
75372;HTU21D;63956;52.006;5.878;2023-01-10T08:44:12;8.17;71.27
75372;HTU21D;63956;52.006;5.878;2023-01-10T08:46:41;8.24;71.30
75372;HTU21D;63956;52.006;5.878;2023-01-10T08:49:10;8.26;71.06
75372;HTU21D;63956;52.006;5.878;2023-01-10T08:51:39;8.34;71.06
75372;HTU21D;63956;52.006;5.878;2023-01-10T08:54:09;8.33;70.76
75372;HTU21D;63956;52.006;5.878;2023-01-10T08:56:38;8.38;70.74
75372;HTU21D;63956;52.006;5.878;2023-01-10T08:59:10;8.47;70.77
75372;HTU21D;63956;52.006;5.878;2023-01-10T09:01:39;8.43;70.58
75372;HTU21D;63956;52.006;5.878;2023-01-10T09:04:08;8.45;70.69
75372;HTU21D;63956;52.006;5.878;2023-01-10T09:06:37;8.42;70.56
75372;HTU21D;63956;52.006;5.878;2023-01-10T09:09:06;8.45;70.76
75372;HTU21D;63956;52.006;5.878;2023-01-10T09:11:35;8.42;70.46
75372;HTU21D;63956;52.006;5.878;2023-01-10T09:14:04;8.39;70.45
75372;HTU21D;63956;52.006;5.878;2023-01-10T09:16:36;8.39;70.63
75372;HTU21D;63956;52.006;5.878;2023-01-10T09:19:06;8.39;70.53
75372;HTU21D;63956;52.006;5.878;2023-01-10T09:21:35;8.45;70.55
75372;HTU21D;63956;52.006;5.878;2023-01-10T09:24:05;8.49;70.50
75372;HTU21D;63956;52.006;5.878;2023-01-10T09:26:34;8.52;70.47
75372;HTU21D;63956;52.006;5.878;2023-01-10T09:29:03;8.60;70.41
75372;HTU21D;63956;52.006;5.878;2023-01-10T09:31:32;8.55;70.16
75372;HTU21D;63956;52.006;5.878;2023-01-10T09:34:03;8.60;70.32
75372;HTU21D;63956;52.006;5.878;2023-01-10T09:36:33;8.57;70.10
75372;HTU21D;63956;52.006;5.878;2023-01-10T09:39:02;8.65;70.16
75372;HTU21D;63956;52.006;5.878;2023-01-10T09:41:45;8.64;69.92
75372;HTU21D;63956;52.006;5.878;2023-01-10T09:44:24;8.59;69.93
75372;HTU21D;63956;52.006;5.878;2023-01-10T09:47:03;8.58;70.18
75372;HTU21D;63956;52.006;5.878;2023-01-10T09:49:45;8.61;70.03
75372;HTU21D;63956;52.006;5.878;2023-01-10T09:52:21;8.63;69.69
75372;HTU21D;63956;52.006;5.878;2023-01-10T09:54:53;8.63;69.50
75372;HTU21D;63956;52.006;5.878;2023-01-10T09:57:24;8.58;69.61
75372;HTU21D;63956;52.006;5.878;2023-01-10T09:59:54;8.61;69.86
75372;HTU21D;63956;52.006;5.878;2023-01-10T10:02:28;8.66;69.44
75372;HTU21D;63956;52.006;5.878;2023-01-10T10:05:07;8.65;69.55
75372;HTU21D;63956;52.006;5.878;2023-01-10T10:07:38;8.65;69.54
75372;HTU21D;63956;52.006;5.878;2023-01-10T10:10:11;8.68;69.38
75372;HTU21D;63956;52.006;5.878;2023-01-10T10:12:49;8.65;69.20
75372;HTU21D;63956;52.006;5.878;2023-01-10T10:15:25;8.63;69.30
75372;HTU21D;63956;52.006;5.878;2023-01-10T10:18:06;8.61;69.10
75372;HTU21D;63956;52.006;5.878;2023-01-10T10:20:50;8.58;69.31
75372;HTU21D;63956;52.006;5.878;2023-01-10T10:26:18;8.67;69.04
75372;HTU21D;63956;52.006;5.878;2023-01-10T10:29:06;8.73;69.08
75372;HTU21D;63956;52.006;5.878;2023-01-10T10:31:55;8.74;68.78
75372;HTU21D;63956;52.006;5.878;2023-01-10T10:34:29;8.72;68.94
75372;HTU21D;63956;52.006;5.878;2023-01-10T10:37:10;8.75;68.71
75372;HTU21D;63956;52.006;5.878;2023-01-10T10:39:43;8.77;68.53
75372;HTU21D;63956;52.006;5.878;2023-01-10T10:42:16;8.79;68.65
75372;HTU21D;63956;52.006;5.878;2023-01-10T10:44:49;8.85;68.42
75372;HTU21D;63956;52.006;5.878;2023-01-10T10:47:21;8.86;67.88
75372;HTU21D;63956;52.006;5.878;2023-01-10T10:49:58;8.86;68.22
75372;HTU21D;63956;52.006;5.878;2023-01-10T10:52:34;8.87;68.20
75372;HTU21D;63956;52.006;5.878;2023-01-10T10:55:05;8.88;68.04
75372;HTU21D;63956;52.006;5.878;2023-01-10T10:57:37;8.87;68.07
75372;HTU21D;63956;52.006;5.878;2023-01-10T11:00:13;8.88;67.83
75372;HTU21D;63956;52.006;5.878;2023-01-10T11:02:46;8.88;67.97
75372;HTU21D;63956;52.006;5.878;2023-01-10T11:05:20;8.86;68.02
75372;HTU21D;63956;52.006;5.878;2023-01-10T11:07:58;8.81;67.88
75372;HTU21D;63956;52.006;5.878;2023-01-10T11:10:28;8.77;68.10
75372;HTU21D;63956;52.006;5.878;2023-01-10T11:13:13;8.81;67.99
75372;HTU21D;63956;52.006;5.878;2023-01-10T11:15:46;8.79;67.96
75372;HTU21D;63956;52.006;5.878;2023-01-10T11:18:18;8.81;68.01
75372;HTU21D;63956;52.006;5.878;2023-01-10T11:20:51;8.78;68.14
75372;HTU21D;63956;52.006;5.878;2023-01-10T11:23:42;8.82;68.13
75372;HTU21D;63956;52.006;5.878;2023-01-10T11:26:25;8.82;68.18
75372;HTU21D;63956;52.006;5.878;2023-01-10T11:29:05;8.81;68.22
75372;HTU21D;63956;52.006;5.878;2023-01-10T11:31:35;8.78;67.84
75372;HTU21D;63956;52.006;5.878;2023-01-10T11:34:15;8.75;67.99
75372;HTU21D;63956;52.006;5.878;2023-01-10T11:36:52;8.78;67.91
75372;HTU21D;63956;52.006;5.878;2023-01-10T11:39:25;8.77;67.89
75372;HTU21D;63956;52.006;5.878;2023-01-10T11:41:55;8.75;67.80
75372;HTU21D;63956;52.006;5.878;2023-01-10T11:44:26;8.77;67.89
75372;HTU21D;63956;52.006;5.878;2023-01-10T11:46:57;8.78;67.81
75372;HTU21D;63956;52.006;5.878;2023-01-10T11:49:31;8.83;67.93
75372;HTU21D;63956;52.006;5.878;2023-01-10T11:52:03;8.87;67.92
75372;HTU21D;63956;52.006;5.878;2023-01-10T11:54:35;8.93;67.44
75372;HTU21D;63956;52.006;5.878;2023-01-10T11:57:14;8.96;67.33
75372;HTU21D;63956;52.006;5.878;2023-01-10T11:59:50;8.95;67.46
75372;HTU21D;63956;52.006;5.878;2023-01-10T12:02:22;8.93;67.68
75372;HTU21D;63956;52.006;5.878;2023-01-10T12:04:54;8.95;67.49
75372;HTU21D;63956;52.006;5.878;2023-01-10T12:07:24;8.95;67.21
75372;HTU21D;63956;52.006;5.878;2023-01-10T12:09:58;8.94;67.61
75372;HTU21D;63956;52.006;5.878;2023-01-10T12:12:29;8.91;67.72
75372;HTU21D;63956;52.006;5.878;2023-01-10T12:15:01;8.92;67.70
75372;HTU21D;63956;52.006;5.878;2023-01-10T12:17:48;8.93;67.64
75372;HTU21D;63956;52.006;5.878;2023-01-10T12:20:18;8.94;67.68
75372;HTU21D;63956;52.006;5.878;2023-01-10T12:22:50;8.97;67.94
75372;HTU21D;63956;52.006;5.878;2023-01-10T12:25:27;9.04;67.65
75372;HTU21D;63956;52.006;5.878;2023-01-10T12:27:59;9.03;67.50
75372;HTU21D;63956;52.006;5.878;2023-01-10T12:30:31;9.03;67.53
75372;HTU21D;63956;52.006;5.878;2023-01-10T12:33:03;9.01;67.36
75372;HTU21D;63956;52.006;5.878;2023-01-10T12:35:39;9.03;67.60
75372;HTU21D;63956;52.006;5.878;2023-01-10T12:38:20;9.03;67.49
75372;HTU21D;63956;52.006;5.878;2023-01-10T12:41:09;9.03;67.42
75372;HTU21D;63956;52.006;5.878;2023-01-10T12:43:59;9.05;67.59
75372;HTU21D;63956;52.006;5.878;2023-01-10T12:46:41;9.07;67.66
75372;HTU21D;63956;52.006;5.878;2023-01-10T12:49:20;9.09;67.55
75372;HTU21D;63956;52.006;5.878;2023-01-10T12:51:52;9.09;67.59
75372;HTU21D;63956;52.006;5.878;2023-01-10T12:54:25;9.07;67.46
75372;HTU21D;63956;52.006;5.878;2023-01-10T12:56:57;9.11;67.59
75372;HTU21D;63956;52.006;5.878;2023-01-10T12:59:31;9.14;67.46
75372;HTU21D;63956;52.006;5.878;2023-01-10T13:02:05;9.17;67.44
75372;HTU21D;63956;52.006;5.878;2023-01-10T13:04:36;9.09;67.18
75372;HTU21D;63956;52.006;5.878;2023-01-10T13:07:09;9.10;67.28
75372;HTU21D;63956;52.006;5.878;2023-01-10T13:09:40;9.12;67.48
75372;HTU21D;63956;52.006;5.878;2023-01-10T13:12:15;9.11;67.33
75372;HTU21D;63956;52.006;5.878;2023-01-10T13:14:52;9.15;67.46
75372;HTU21D;63956;52.006;5.878;2023-01-10T13:17:28;9.19;67.35
75372;HTU21D;63956;52.006;5.878;2023-01-10T13:20:23;9.21;67.28
75372;HTU21D;63956;52.006;5.878;2023-01-10T13:22:55;9.21;67.16
75372;HTU21D;63956;52.006;5.878;2023-01-10T13:25:26;9.22;67.33
75372;HTU21D;63956;52.006;5.878;2023-01-10T13:28:03;9.24;67.27
75372;HTU21D;63956;52.006;5.878;2023-01-10T13:30:35;9.25;67.23
75372;HTU21D;63956;52.006;5.878;2023-01-10T13:33:07;9.23;67.26
75372;HTU21D;63956;52.006;5.878;2023-01-10T13:35:44;9.23;67.14
75372;HTU21D;63956;52.006;5.878;2023-01-10T13:38:17;9.24;67.40
75372;HTU21D;63956;52.006;5.878;2023-01-10T13:41:02;9.29;67.30
75372;HTU21D;63956;52.006;5.878;2023-01-10T13:46:44;9.32;67.36
75372;HTU21D;63956;52.006;5.878;2023-01-10T13:49:43;9.32;67.20
75372;HTU21D;63956;52.006;5.878;2023-01-10T13:52:36;9.32;67.03
75372;HTU21D;63956;52.006;5.878;2023-01-10T13:55:22;9.33;67.01
75372;HTU21D;63956;52.006;5.878;2023-01-10T13:57:55;9.33;67.11
75372;HTU21D;63956;52.006;5.878;2023-01-10T14:00:46;9.38;66.91
75372;HTU21D;63956;52.006;5.878;2023-01-10T14:03:44;9.39;66.91
75372;HTU21D;63956;52.006;5.878;2023-01-10T14:06:32;9.38;66.66
75372;HTU21D;63956;52.006;5.878;2023-01-10T14:09:35;9.40;66.75
75372;HTU21D;63956;52.006;5.878;2023-01-10T14:12:07;9.40;66.58
75372;HTU21D;63956;52.006;5.878;2023-01-10T14:14:52;9.42;66.88
75372;HTU21D;63956;52.006;5.878;2023-01-10T14:17:26;9.41;66.71
75372;HTU21D;63956;52.006;5.878;2023-01-10T14:20:06;9.44;66.59
75372;HTU21D;63956;52.006;5.878;2023-01-10T14:22:37;9.39;66.53
75372;HTU21D;63956;52.006;5.878;2023-01-10T14:25:16;9.41;66.56
75372;HTU21D;63956;52.006;5.878;2023-01-10T14:27:48;9.41;66.27
75372;HTU21D;63956;52.006;5.878;2023-01-10T14:30:20;9.42;66.69
75372;HTU21D;63956;52.006;5.878;2023-01-10T14:32:55;9.46;66.43
75372;HTU21D;63956;52.006;5.878;2023-01-10T14:35:31;9.50;66.15
75372;HTU21D;63956;52.006;5.878;2023-01-10T14:38:02;9.48;66.23
75372;HTU21D;63956;52.006;5.878;2023-01-10T14:40:36;9.50;66.28
75372;HTU21D;63956;52.006;5.878;2023-01-10T14:43:12;9.49;66.20
75372;HTU21D;63956;52.006;5.878;2023-01-10T14:45:48;9.50;66.04
75372;HTU21D;63956;52.006;5.878;2023-01-10T14:48:26;9.50;66.30
75372;HTU21D;63956;52.006;5.878;2023-01-10T14:51:15;9.49;66.33
75372;HTU21D;63956;52.006;5.878;2023-01-10T14:53:46;9.47;66.75
75372;HTU21D;63956;52.006;5.878;2023-01-10T14:56:20;9.45;67.01
75372;HTU21D;63956;52.006;5.878;2023-01-10T14:58:50;9.38;67.41
75372;HTU21D;63956;52.006;5.878;2023-01-10T15:01:25;9.35;67.66
75372;HTU21D;63956;52.006;5.878;2023-01-10T15:03:57;9.30;68.10
75372;HTU21D;63956;52.006;5.878;2023-01-10T15:06:27;9.26;68.23
75372;HTU21D;63956;52.006;5.878;2023-01-10T15:08:58;9.20;68.76
75372;HTU21D;63956;52.006;5.878;2023-01-10T15:11:29;9.12;69.04
75372;HTU21D;63956;52.006;5.878;2023-01-10T15:14:04;9.08;69.33
75372;HTU21D;63956;52.006;5.878;2023-01-10T15:16:35;9.02;69.78
75372;HTU21D;63956;52.006;5.878;2023-01-10T15:19:12;9.02;69.49
75372;HTU21D;63956;52.006;5.878;2023-01-10T15:21:43;8.97;70.03
75372;HTU21D;63956;52.006;5.878;2023-01-10T15:24:30;8.95;69.94
75372;HTU21D;63956;52.006;5.878;2023-01-10T15:27:02;8.89;70.61
75372;HTU21D;63956;52.006;5.878;2023-01-10T15:29:32;8.87;70.65
75372;HTU21D;63956;52.006;5.878;2023-01-10T15:32:07;8.83;70.84
75372;HTU21D;63956;52.006;5.878;2023-01-10T15:34:39;8.80;70.41
75372;HTU21D;63956;52.006;5.878;2023-01-10T15:37:15;8.74;70.93
75372;HTU21D;63956;52.006;5.878;2023-01-10T15:39:46;8.68;71.32
75372;HTU21D;63956;52.006;5.878;2023-01-10T15:42:18;8.64;71.49
75372;HTU21D;63956;52.006;5.878;2023-01-10T15:44:48;8.62;72.05
75372;HTU21D;63956;52.006;5.878;2023-01-10T15:47:48;8.61;71.73
75372;HTU21D;63956;52.006;5.878;2023-01-10T15:50:24;8.57;72.26
75372;HTU21D;63956;52.006;5.878;2023-01-10T15:52:56;8.50;72.63
75372;HTU21D;63956;52.006;5.878;2023-01-10T15:55:38;8.49;72.51
75372;HTU21D;63956;52.006;5.878;2023-01-10T15:58:16;8.48;72.67
75372;HTU21D;63956;52.006;5.878;2023-01-10T16:00:47;8.43;73.00
75372;HTU21D;63956;52.006;5.878;2023-01-10T16:03:22;8.39;73.13
75372;HTU21D;63956;52.006;5.878;2023-01-10T16:05:56;8.36;73.37
75372;HTU21D;63956;52.006;5.878;2023-01-10T16:08:27;8.35;73.45
75372;HTU21D;63956;52.006;5.878;2023-01-10T16:11:02;8.35;73.35
75372;HTU21D;63956;52.006;5.878;2023-01-10T16:13:32;8.32;73.68
75372;HTU21D;63956;52.006;5.878;2023-01-10T16:16:02;8.32;73.59
75372;HTU21D;63956;52.006;5.878;2023-01-10T16:18:34;8.30;73.77
75372;HTU21D;63956;52.006;5.878;2023-01-10T16:21:05;8.31;73.67